createdAt,value
2023-05-02T00:01:11.856Z,95976.59
2023-05-02T00:03:42.508Z,95976.72
2023-05-02T00:06:12.299Z,95977.25
2023-05-02T00:08:41.116Z,95974.53
2023-05-02T00:11:09.762Z,95974.25
2023-05-02T00:13:38.457Z,95976.94
2023-05-02T00:16:09.395Z,95968.00
2023-05-02T00:18:38.141Z,95968.28
2023-05-02T00:21:07.432Z,95979.88
2023-05-02T00:23:36.271Z,95980.56
2023-05-02T00:26:04.986Z,95985.84
2023-05-02T00:28:34.239Z,95980.00
2023-05-02T00:31:02.947Z,95984.59
2023-05-02T00:33:33.205Z,95987.56
2023-05-02T00:36:02.171Z,95991.75
2023-05-02T00:38:31.190Z,95986.50
2023-05-02T00:40:59.935Z,95992.28
2023-05-02T00:43:32.205Z,95983.25
2023-05-02T00:46:00.915Z,95985.63
2023-05-02T00:48:30.174Z,95993.47
2023-05-02T00:51:01.020Z,95999.00
2023-05-02T00:53:29.997Z,95997.38
2023-05-02T00:55:59.725Z,95990.59
2023-05-02T00:58:31.144Z,95998.31
2023-05-02T01:01:13.788Z,96004.38
2023-05-02T01:03:51.392Z,95969.13
2023-05-02T01:06:39.194Z,96001.91
2023-05-02T01:09:22.495Z,96002.28
2023-05-02T01:11:58.726Z,96004.59
2023-05-02T01:14:30.789Z,96001.34
2023-05-02T01:17:00.931Z,96002.03
2023-05-02T01:19:34.768Z,96003.53
2023-05-02T01:22:08.336Z,95999.47
2023-05-02T01:24:43.143Z,96005.41
2023-05-02T01:27:19.530Z,96003.63
2023-05-02T01:29:52.040Z,96018.00
2023-05-02T01:32:22.441Z,96013.81
2023-05-02T01:34:51.808Z,96018.53
2023-05-02T01:37:20.896Z,96031.81
2023-05-02T01:39:51.144Z,96032.75
2023-05-02T01:42:21.881Z,96035.56
2023-05-02T01:44:52.415Z,96035.41
2023-05-02T01:47:21.784Z,96043.53
2023-05-02T01:49:50.098Z,96041.34
2023-05-02T01:52:20.878Z,96031.78
2023-05-02T01:54:49.889Z,96032.56
2023-05-02T01:57:20.446Z,96039.56
2023-05-02T01:59:49.659Z,96032.81
2023-05-02T02:02:20.722Z,96041.09
2023-05-02T02:04:50.695Z,96032.97
2023-05-02T02:07:19.353Z,96038.09
2023-05-02T02:09:48.131Z,96043.91
2023-05-02T02:12:19.450Z,96043.78
2023-05-02T02:14:52.681Z,96041.34
2023-05-02T02:17:28.169Z,96016.00
2023-05-02T02:19:58.086Z,96040.41
2023-05-02T02:22:28.604Z,96038.66
2023-05-02T02:24:58.573Z,96040.13
2023-05-02T02:27:27.412Z,96038.38
2023-05-02T02:29:57.292Z,96045.41
2023-05-02T02:32:27.692Z,96041.22
2023-05-02T02:34:56.498Z,96031.09
2023-05-02T02:37:28.133Z,96045.41
2023-05-02T02:40:01.823Z,96044.84
2023-05-02T02:42:41.519Z,96049.19
2023-05-02T02:45:20.688Z,96045.91
2023-05-02T02:47:56.454Z,96055.50
2023-05-02T02:50:31.720Z,96050.50
2023-05-02T02:53:02.216Z,96061.00
2023-05-02T02:55:39.813Z,96063.81
2023-05-02T02:58:18.958Z,96058.25
2023-05-02T03:00:49.407Z,96067.59
2023-05-02T03:03:20.589Z,96066.63
2023-05-02T03:05:49.613Z,96070.72
2023-05-02T03:08:18.251Z,96071.50
2023-05-02T03:10:46.816Z,96070.84
2023-05-02T03:13:15.789Z,96072.97
2023-05-02T03:16:17.841Z,96075.63
2023-05-02T03:18:48.380Z,96078.47
2023-05-02T03:21:17.537Z,96075.19
2023-05-02T03:23:46.511Z,96079.75
2023-05-02T03:26:15.054Z,96078.28
2023-05-02T03:28:46.781Z,96080.00
2023-05-02T03:31:16.393Z,96090.28
2023-05-02T03:33:46.620Z,96084.72
2023-05-02T03:36:17.230Z,96089.84
2023-05-02T03:38:46.269Z,96087.28
2023-05-02T03:41:15.348Z,96087.13
2023-05-02T03:43:44.438Z,96089.72
2023-05-02T03:46:15.605Z,96094.53
2023-05-02T03:48:46.712Z,96102.59
2023-05-02T03:51:17.013Z,96107.84
2023-05-02T03:53:46.104Z,96103.38
2023-05-02T03:56:20.530Z,96107.03
2023-05-02T03:58:50.827Z,96115.88
2023-05-02T04:01:19.744Z,96113.88
2023-05-02T04:03:48.401Z,96112.66
2023-05-02T04:06:18.618Z,96102.78
2023-05-02T04:08:47.583Z,96126.44
2023-05-02T04:11:17.312Z,96117.34
2023-05-02T04:13:50.025Z,96120.50
2023-05-02T04:16:20.575Z,96132.97
2023-05-02T04:18:50.069Z,96130.75
2023-05-02T04:21:20.179Z,96132.53
2023-05-02T04:23:48.875Z,96136.56
2023-05-02T04:26:17.707Z,96139.72
2023-05-02T04:28:46.870Z,96136.78
2023-05-02T04:31:15.942Z,96131.16
2023-05-02T04:33:45.720Z,96125.66
2023-05-02T04:36:14.481Z,96135.44
2023-05-02T04:38:44.822Z,96138.78
2023-05-02T04:41:13.406Z,96131.22
2023-05-02T04:43:42.535Z,96139.63
2023-05-02T04:46:14.111Z,96137.50
2023-05-02T04:48:42.940Z,96143.19
2023-05-02T04:51:11.795Z,96144.03
2023-05-02T04:53:40.344Z,96152.16
2023-05-02T04:56:11.647Z,96150.03
2023-05-02T04:58:40.357Z,96152.22
2023-05-02T05:01:09.286Z,96154.28
2023-05-02T05:03:38.237Z,96154.03
2023-05-02T05:06:07.495Z,96154.34
2023-05-02T05:08:36.329Z,96159.22
2023-05-02T05:11:05.368Z,96160.47
2023-05-02T05:13:35.567Z,96163.75
2023-05-02T05:16:04.257Z,96161.88
2023-05-02T05:18:40.625Z,96170.25
2023-05-02T05:21:10.017Z,96172.28
2023-05-02T05:23:39.709Z,96167.00
2023-05-02T05:26:12.181Z,96174.19
2023-05-02T05:28:42.309Z,96168.44
2023-05-02T05:31:13.037Z,96168.47
2023-05-02T05:33:45.094Z,96172.59
2023-05-02T05:36:15.268Z,96176.13
2023-05-02T05:38:43.957Z,96173.91
2023-05-02T05:41:12.911Z,96176.22
2023-05-02T05:43:42.924Z,96172.16
2023-05-02T05:46:11.384Z,96178.13
2023-05-02T05:48:39.943Z,96177.22
2023-05-02T05:51:08.981Z,96190.06
2023-05-02T05:53:37.581Z,96185.47
2023-05-02T05:56:12.902Z,96181.97
2023-05-02T05:58:44.406Z,96191.28
2023-05-02T06:01:13.392Z,96197.66
2023-05-02T06:03:41.966Z,96187.66
2023-05-02T06:06:11.286Z,96194.19
2023-05-02T06:08:39.749Z,96200.31
2023-05-02T06:11:11.882Z,96196.91
2023-05-02T06:13:40.678Z,96200.72
2023-05-02T06:16:11.302Z,96204.25
2023-05-02T06:18:39.794Z,96209.91
2023-05-02T06:21:09.410Z,96205.19
2023-05-02T06:23:38.162Z,96207.25
2023-05-02T06:26:07.205Z,96206.97
2023-05-02T06:28:35.734Z,96214.56
2023-05-02T06:31:06.136Z,96212.94
2023-05-02T06:34:01.463Z,96213.50
2023-05-02T06:36:31.310Z,96217.41
2023-05-02T06:39:02.747Z,96213.91
2023-05-02T06:41:33.973Z,96215.69
2023-05-02T06:44:02.914Z,96220.03
2023-05-02T06:46:32.368Z,96226.38
2023-05-02T06:49:02.155Z,96224.34
2023-05-02T06:51:32.132Z,96227.22
2023-05-02T06:54:03.301Z,96226.56
2023-05-02T06:56:32.625Z,96224.66
2023-05-02T06:59:01.219Z,96235.00
2023-05-02T07:01:30.267Z,96235.53
2023-05-02T07:03:59.024Z,96232.31
2023-05-02T07:06:29.287Z,96237.03
2023-05-02T07:08:57.939Z,96243.81
2023-05-02T07:11:28.358Z,96241.25
2023-05-02T07:13:57.514Z,96238.81
2023-05-02T07:16:26.547Z,96234.47
2023-05-02T07:18:55.492Z,96243.81
2023-05-02T07:21:24.364Z,96236.53
2023-05-02T07:23:55.788Z,96243.16
2023-05-02T07:26:25.780Z,96213.84
2023-05-02T07:28:54.842Z,96254.28
2023-05-02T07:31:23.941Z,96250.34
2023-05-02T07:33:52.754Z,96261.97
2023-05-02T07:36:22.090Z,96259.63
2023-05-02T07:38:50.987Z,96257.03
2023-05-02T07:41:21.530Z,96270.47
2023-05-02T07:43:50.123Z,96267.91
2023-05-02T07:46:18.966Z,96270.38
2023-05-02T07:48:47.516Z,96277.13
2023-05-02T07:51:16.428Z,96278.63
2023-05-02T07:53:45.319Z,96278.81
2023-05-02T07:56:14.329Z,96267.28
2023-05-02T07:58:44.568Z,96270.66
2023-05-02T08:01:13.703Z,96278.31
2023-05-02T08:03:42.514Z,96279.41
2023-05-02T08:06:11.274Z,96276.38
2023-05-02T08:08:42.367Z,96278.22
2023-05-02T08:11:11.119Z,96280.13
2023-05-02T08:13:39.365Z,96291.53
2023-05-02T08:16:09.747Z,96293.59
2023-05-02T08:18:38.637Z,96302.72
2023-05-02T08:21:07.878Z,96294.72
2023-05-02T08:23:37.631Z,96288.31
2023-05-02T08:26:07.040Z,96288.00
2023-05-02T08:28:35.845Z,96284.78
2023-05-02T08:31:05.029Z,96289.63
2023-05-02T08:33:35.316Z,96293.84
2023-05-02T08:36:12.593Z,96295.50
2023-05-02T08:38:41.059Z,96290.69
2023-05-02T08:41:13.275Z,96295.56
2023-05-02T08:43:42.016Z,96300.63
2023-05-02T08:46:12.406Z,96303.97
2023-05-02T08:48:44.168Z,96311.59
2023-05-02T08:51:15.306Z,96307.97
2023-05-02T08:53:44.559Z,96309.47
2023-05-02T08:56:14.395Z,96297.69
2023-05-02T08:58:43.085Z,96309.75
2023-05-02T09:01:15.590Z,96303.34
2023-05-02T09:03:47.657Z,96304.91
2023-05-02T09:06:18.143Z,96308.03
2023-05-02T09:08:49.078Z,96301.97
2023-05-02T09:11:19.020Z,96307.09
2023-05-02T09:13:49.017Z,96310.25
2023-05-02T09:16:18.265Z,96313.00
2023-05-02T09:18:50.054Z,96305.78
2023-05-02T09:21:21.187Z,96311.84
2023-05-02T09:23:51.100Z,96307.13
2023-05-02T09:26:21.375Z,96318.31
2023-05-02T09:28:50.747Z,96313.44
2023-05-02T09:31:43.635Z,96312.75
2023-05-02T09:34:12.207Z,96325.06
2023-05-02T09:36:42.436Z,96312.16
2023-05-02T09:39:13.737Z,96322.97
2023-05-02T09:41:43.325Z,96323.69
2023-05-02T09:44:13.681Z,96322.06
2023-05-02T09:46:43.118Z,96329.75
2023-05-02T09:49:14.916Z,96330.09
2023-05-02T09:51:44.382Z,96325.06
2023-05-02T09:54:13.092Z,96333.47
2023-05-02T09:56:56.739Z,96326.56
2023-05-02T09:59:26.226Z,96284.31
2023-05-02T10:01:58.909Z,96325.69
2023-05-02T10:04:30.536Z,96325.88
2023-05-02T10:07:00.979Z,96330.59
2023-05-02T10:09:32.811Z,96339.25
2023-05-02T10:12:05.369Z,96335.81
2023-05-02T10:14:39.419Z,96326.19
2023-05-02T10:17:14.275Z,96340.16
2023-05-02T10:19:51.589Z,96336.72
2023-05-02T10:22:21.535Z,96250.59
2023-05-02T10:24:50.835Z,96342.00
2023-05-02T10:27:20.465Z,96344.41
2023-05-02T10:29:49.611Z,96338.59
2023-05-02T10:32:19.837Z,96346.50
2023-05-02T10:34:50.557Z,96338.78
2023-05-02T10:37:20.053Z,96331.78
2023-05-02T10:39:48.744Z,96341.63
2023-05-02T10:42:18.621Z,96339.88
2023-05-02T10:44:47.237Z,96344.69
2023-05-02T10:47:23.412Z,96351.50
2023-05-02T10:49:54.565Z,96345.66
2023-05-02T10:52:31.850Z,96355.44
2023-05-02T10:55:16.550Z,96357.63
2023-05-02T10:58:24.790Z,96365.25
2023-05-02T11:00:53.413Z,96359.41
2023-05-02T11:03:55.671Z,96361.03
2023-05-02T11:06:26.540Z,96365.94
2023-05-02T11:08:55.654Z,96369.44
2023-05-02T11:11:48.607Z,96360.63
2023-05-02T11:14:51.131Z,96367.16
2023-05-02T11:17:21.289Z,96372.84
2023-05-02T11:20:29.486Z,96370.28
2023-05-02T11:23:01.318Z,96366.75
2023-05-02T11:25:40.190Z,96352.91
2023-05-02T11:28:10.698Z,96380.72
2023-05-02T11:30:48.907Z,96376.13
2023-05-02T11:33:20.303Z,96378.16
2023-05-02T11:35:50.384Z,96385.88
2023-05-02T11:38:23.798Z,96386.00
2023-05-02T11:40:58.387Z,96391.28
2023-05-02T11:43:30.814Z,96388.56
2023-05-02T11:46:03.766Z,96388.69
2023-05-02T11:48:32.884Z,96390.22
2023-05-02T11:51:05.527Z,96387.22
2023-05-02T11:53:36.631Z,96390.22
2023-05-02T11:56:06.781Z,96399.72
2023-05-02T11:58:35.480Z,96394.97
2023-05-02T12:01:15.110Z,96401.22
2023-05-02T12:03:44.198Z,96405.81
2023-05-02T12:06:15.499Z,96403.94
2023-05-02T12:08:46.403Z,96406.09
2023-05-02T12:11:15.893Z,96412.59
2023-05-02T12:13:50.931Z,96405.94
2023-05-02T12:16:20.319Z,96405.16
2023-05-02T12:18:49.557Z,96410.56
2023-05-02T12:21:19.299Z,96409.22
2023-05-02T12:23:49.646Z,96403.78
2023-05-02T12:26:19.563Z,96406.50
2023-05-02T12:28:51.977Z,96392.38
2023-05-02T12:31:21.125Z,96404.75
2023-05-02T12:33:51.204Z,96397.41
2023-05-02T12:36:20.652Z,96396.06
2023-05-02T12:38:55.231Z,96398.75
2023-05-02T12:41:34.462Z,96399.44
2023-05-02T12:44:03.123Z,96403.78
2023-05-02T12:46:33.127Z,96405.13
2023-05-02T12:49:06.744Z,96401.34
2023-05-02T12:51:36.821Z,96403.09
2023-05-02T12:54:08.378Z,96396.75
2023-05-02T12:56:44.396Z,96407.88
2023-05-02T12:59:28.148Z,96403.81
2023-05-02T13:01:56.590Z,96400.41
2023-05-02T13:04:36.643Z,96409.75
2023-05-02T13:07:05.730Z,96395.91
2023-05-02T13:09:35.919Z,96401.47
2023-05-02T13:12:05.145Z,96397.81
2023-05-02T13:14:34.479Z,96399.19
2023-05-02T13:17:04.356Z,96397.25
2023-05-02T13:19:33.771Z,96410.31
2023-05-02T13:22:02.402Z,96405.81
2023-05-02T13:24:31.256Z,96394.56
2023-05-02T13:27:02.134Z,96398.09
2023-05-02T13:29:31.833Z,96396.47
2023-05-02T13:32:02.860Z,96392.81
2023-05-02T13:34:31.781Z,96393.19
2023-05-02T13:37:01.109Z,96392.13
2023-05-02T13:39:30.197Z,96395.91
2023-05-02T13:42:03.649Z,96403.53
2023-05-02T13:44:33.546Z,96404.06
2023-05-02T13:47:02.007Z,96395.66
2023-05-02T13:49:30.855Z,96394.84
2023-05-02T13:51:59.825Z,96402.16
2023-05-02T13:54:28.620Z,96405.00
2023-05-02T13:56:57.979Z,96404.63
2023-05-02T13:59:28.400Z,96404.72
2023-05-02T14:01:57.000Z,96405.94
2023-05-02T14:04:25.470Z,96405.38
2023-05-02T14:06:54.878Z,96409.69
2023-05-02T14:09:23.680Z,96412.09
2023-05-02T14:11:52.331Z,96413.50
2023-05-02T14:14:20.993Z,96409.53
2023-05-02T14:16:51.694Z,96407.91
2023-05-02T14:19:20.469Z,96408.88
2023-05-02T14:21:49.541Z,96411.19
2023-05-02T14:24:19.752Z,96411.72
2023-05-02T14:26:48.625Z,96410.13
2023-05-02T14:29:18.438Z,96411.63
2023-05-02T14:31:47.551Z,96412.84
2023-05-02T14:34:17.466Z,96412.97
2023-05-02T14:36:46.300Z,96410.91
2023-05-02T14:39:15.121Z,96409.72
2023-05-02T14:41:44.112Z,96404.94
2023-05-02T14:44:13.155Z,96412.44
2023-05-02T14:46:42.467Z,96409.09
2023-05-02T14:49:11.213Z,96410.94
2023-05-02T14:51:41.332Z,96416.63
2023-05-02T14:54:10.263Z,96420.09
2023-05-02T14:56:43.515Z,96424.00
2023-05-02T14:59:12.735Z,96422.91
2023-05-02T15:01:41.431Z,96427.34
2023-05-02T15:04:10.840Z,96429.41
2023-05-02T15:06:41.973Z,96429.50
2023-05-02T15:09:12.504Z,96438.47
2023-05-02T15:11:41.491Z,96430.34
2023-05-02T15:14:10.808Z,96435.53
2023-05-02T15:16:39.919Z,96431.75
2023-05-02T15:19:08.673Z,96431.25
2023-05-02T15:21:37.882Z,96428.03
2023-05-02T15:24:08.608Z,96431.72
2023-05-02T15:26:38.821Z,96439.75
2023-05-02T15:29:07.616Z,96446.38
2023-05-02T15:31:37.460Z,96437.81
2023-05-02T15:34:06.184Z,96441.88
2023-05-02T15:36:37.730Z,96440.78
2023-05-02T15:39:07.968Z,96442.16
2023-05-02T15:41:36.960Z,96441.06
2023-05-02T15:44:05.711Z,96442.72
2023-05-02T15:46:35.069Z,96441.34
2023-05-02T15:49:03.829Z,96443.81
2023-05-02T15:51:33.024Z,96445.28
2023-05-02T15:54:02.792Z,96444.41
2023-05-02T15:56:47.753Z,96445.66
2023-05-02T15:59:16.902Z,96451.91
2023-05-02T16:01:45.821Z,96453.50
2023-05-02T16:04:15.817Z,96450.63
2023-05-02T16:06:44.531Z,96453.97
2023-05-02T16:09:14.181Z,96457.38
2023-05-02T16:11:43.106Z,96453.31
2023-05-02T16:14:13.620Z,96453.03
2023-05-02T16:16:42.448Z,96456.16
2023-05-02T16:19:13.755Z,96453.16
2023-05-02T16:21:43.561Z,96462.28
2023-05-02T16:24:12.412Z,96468.25
2023-05-02T16:26:41.378Z,96459.25
2023-05-02T16:29:09.685Z,96464.84
2023-05-02T16:31:42.963Z,96461.88
2023-05-02T16:34:13.090Z,96469.25
2023-05-02T16:36:42.759Z,96465.00
2023-05-02T16:39:12.248Z,96470.69
2023-05-02T16:41:41.674Z,96472.63
2023-05-02T16:44:10.639Z,96470.91
2023-05-02T16:46:41.800Z,96475.16
2023-05-02T16:49:10.539Z,96481.13
2023-05-02T16:51:39.956Z,96474.88
2023-05-02T16:54:09.603Z,96475.72
2023-05-02T16:56:39.130Z,96476.75
2023-05-02T16:59:09.319Z,96475.00
2023-05-02T17:01:38.103Z,96469.75
2023-05-02T17:04:09.222Z,96473.25
2023-05-02T17:06:38.060Z,96479.47
2023-05-02T17:09:07.648Z,96478.78
2023-05-02T17:11:36.408Z,96482.44
2023-05-02T17:14:05.099Z,96468.28
2023-05-02T17:16:34.192Z,96484.88
2023-05-02T17:19:03.615Z,96489.75
2023-05-02T17:21:34.521Z,96485.81
2023-05-02T17:24:03.572Z,96491.06
2023-05-02T17:26:32.600Z,96501.50
2023-05-02T17:29:01.658Z,96502.34
2023-05-02T17:31:30.724Z,96499.34
2023-05-02T17:33:59.614Z,96504.03
2023-05-02T17:36:28.261Z,96506.28
2023-05-02T17:38:59.099Z,96511.44
2023-05-02T17:41:31.051Z,96511.44
2023-05-02T17:44:00.396Z,96510.59
2023-05-02T17:46:29.146Z,96514.94
2023-05-02T17:48:58.410Z,96519.84
2023-05-02T17:51:27.203Z,96524.03
2023-05-02T17:53:57.591Z,96523.25
2023-05-02T17:56:26.997Z,96523.25
2023-05-02T17:58:56.571Z,96525.09
2023-05-02T18:01:25.607Z,96530.13
2023-05-02T18:03:55.111Z,96531.88
2023-05-02T18:06:23.909Z,96535.66
2023-05-02T18:08:53.229Z,96540.34
2023-05-02T18:11:26.946Z,96537.53
2023-05-02T18:13:56.125Z,96548.31
2023-05-02T18:16:25.168Z,96546.16
2023-05-02T18:18:54.046Z,96550.41
2023-05-02T18:21:23.196Z,96551.44
2023-05-02T18:23:52.649Z,96553.09
2023-05-02T18:26:23.660Z,96554.84
2023-05-02T18:28:54.371Z,96558.44
2023-05-02T18:31:24.112Z,96554.63
2023-05-02T18:33:55.101Z,96558.09
2023-05-02T18:36:27.774Z,96559.19
2023-05-02T18:38:56.898Z,96560.34
2023-05-02T18:41:27.140Z,96564.78
2023-05-02T18:43:58.668Z,96564.66
2023-05-02T18:46:28.815Z,96562.09
2023-05-02T18:48:57.753Z,96574.13
2023-05-02T18:51:29.362Z,96569.00
2023-05-02T18:53:58.029Z,96574.72
2023-05-02T18:56:28.564Z,96550.44
2023-05-02T18:58:57.927Z,96569.94
2023-05-02T19:01:27.006Z,96580.34
2023-05-02T19:03:56.684Z,96576.25
2023-05-02T19:06:26.427Z,96575.28
2023-05-02T19:08:55.289Z,96582.09
2023-05-02T19:11:23.618Z,96579.50
2023-05-02T19:13:56.968Z,96583.69
2023-05-02T19:16:44.260Z,96587.09
2023-05-02T19:19:13.086Z,96599.00
2023-05-02T19:21:41.761Z,96593.88
2023-05-02T19:24:10.923Z,96596.44
2023-05-02T19:26:39.961Z,96606.72
2023-05-02T19:29:10.037Z,96611.19
2023-05-02T19:31:44.273Z,96612.31
2023-05-02T19:34:13.150Z,96634.38
2023-05-02T19:36:42.702Z,96637.78
2023-05-02T19:39:13.478Z,96629.16
2023-05-02T19:41:42.907Z,96637.78
2023-05-02T19:44:13.304Z,96631.69
2023-05-02T19:46:42.327Z,96632.19
2023-05-02T19:49:11.113Z,96644.06
2023-05-02T19:51:40.042Z,96645.72
2023-05-02T19:54:08.835Z,96650.03
2023-05-02T19:56:37.870Z,96648.88
2023-05-02T19:59:06.960Z,96643.97
2023-05-02T20:01:40.107Z,96639.06
2023-05-02T20:04:09.113Z,96645.81
2023-05-02T20:06:38.100Z,96635.78
2023-05-02T20:09:07.299Z,96647.91
2023-05-02T20:11:35.738Z,96647.09
2023-05-02T20:14:05.050Z,96643.59
2023-05-02T20:16:33.977Z,96646.53
2023-05-02T20:19:04.743Z,96652.69
2023-05-02T20:21:33.861Z,96645.34
2023-05-02T20:24:02.828Z,96649.88
2023-05-02T20:26:34.056Z,96648.09
2023-05-02T20:29:03.778Z,96644.00
2023-05-02T20:31:33.336Z,96649.34
2023-05-02T20:34:03.719Z,96648.53
2023-05-02T20:36:32.523Z,96653.47
2023-05-02T20:39:01.353Z,96650.31
2023-05-02T20:41:32.510Z,96652.88
2023-05-02T20:44:02.902Z,96647.84
2023-05-02T20:46:31.695Z,96652.88
2023-05-02T20:49:00.723Z,96655.31
2023-05-02T20:51:31.519Z,96652.03
2023-05-02T20:54:00.664Z,96658.13
2023-05-02T20:56:29.352Z,96650.63
2023-05-02T20:58:58.183Z,96655.88
2023-05-02T21:01:27.333Z,96660.41
2023-05-02T21:03:57.454Z,96659.81
2023-05-02T21:06:26.462Z,96666.72
2023-05-02T21:08:56.828Z,96661.56
2023-05-02T21:11:26.603Z,96663.66
2023-05-02T21:13:55.706Z,96655.47
2023-05-02T21:16:24.524Z,96660.69
2023-05-02T21:18:55.140Z,96676.69
2023-05-02T21:21:25.142Z,96662.56
2023-05-02T21:23:53.893Z,96664.72
2023-05-02T21:26:24.083Z,96671.81
2023-05-02T21:28:53.401Z,96666.81
2023-05-02T21:31:22.600Z,96668.56
2023-05-02T21:33:51.071Z,96666.81
2023-05-02T21:36:20.087Z,96662.72
2023-05-02T21:38:49.287Z,96663.75
2023-05-02T21:41:21.171Z,96666.31
2023-05-02T21:43:52.238Z,96669.94
2023-05-02T21:46:21.070Z,96670.16
2023-05-02T21:48:49.788Z,96668.63
2023-05-02T21:51:18.564Z,96665.03
2023-05-02T21:53:47.338Z,96674.13
2023-05-02T21:56:16.287Z,96672.72
2023-05-02T21:58:48.051Z,96677.25
2023-05-02T22:01:18.329Z,96677.56
2023-05-02T22:03:47.201Z,96676.47
2023-05-02T22:06:15.924Z,96673.78
2023-05-02T22:08:44.933Z,96678.00
2023-05-02T22:11:15.664Z,96682.31
2023-05-02T22:13:47.533Z,96684.16
2023-05-02T22:16:19.077Z,96682.72
2023-05-02T22:18:49.763Z,96686.19
2023-05-02T22:21:19.236Z,96679.63
2023-05-02T22:23:48.638Z,96698.28
2023-05-02T22:26:17.696Z,96690.41
2023-05-02T22:28:46.068Z,96686.94
2023-05-02T22:31:15.827Z,96683.84
2023-05-02T22:33:49.820Z,96686.19
2023-05-02T22:36:43.925Z,96683.72
2023-05-02T22:39:15.894Z,96685.34
2023-05-02T22:41:45.052Z,96680.75
2023-05-02T22:44:13.979Z,96689.28
2023-05-02T22:46:43.273Z,96690.94
2023-05-02T22:49:13.975Z,96691.31
2023-05-02T22:51:43.107Z,96690.72
2023-05-02T22:54:11.952Z,96691.53
2023-05-02T22:56:41.004Z,96684.75
2023-05-02T22:59:10.903Z,96690.72
2023-05-02T23:01:39.659Z,96686.41
2023-05-02T23:04:09.494Z,96689.69
2023-05-02T23:06:40.166Z,96683.63
2023-05-02T23:09:09.490Z,96685.19
2023-05-02T23:11:38.384Z,96679.97
2023-05-02T23:14:07.202Z,96688.56
2023-05-02T23:16:36.781Z,96693.16
2023-05-02T23:19:05.444Z,96686.75
2023-05-02T23:21:34.009Z,96691.16
2023-05-02T23:24:04.252Z,96691.25
2023-05-02T23:26:33.644Z,96682.75
2023-05-02T23:29:02.918Z,96685.19
2023-05-02T23:31:31.895Z,96683.56
2023-05-02T23:34:01.616Z,96685.41
2023-05-02T23:36:32.302Z,96671.16
2023-05-02T23:39:05.158Z,96674.16
2023-05-02T23:41:34.604Z,96673.81
2023-05-02T23:44:03.226Z,96677.00
2023-05-02T23:46:32.212Z,96671.75
2023-05-02T23:49:00.989Z,96673.31
2023-05-02T23:51:32.177Z,96674.31
2023-05-02T23:54:01.673Z,96676.88
2023-05-02T23:56:32.730Z,96671.66
2023-05-02T23:59:01.594Z,96670.94
